createdAt,value
2017-12-13T00:01:16.420Z,17.57
2017-12-13T00:03:42.239Z,13.53
2017-12-13T00:06:08.056Z,13.77
2017-12-13T00:08:33.855Z,19.90
2017-12-13T00:10:59.648Z,21.33
2017-12-13T00:13:25.437Z,30.47
2017-12-13T00:15:51.227Z,15.33
2017-12-13T00:18:17.026Z,20.80
2017-12-13T00:20:42.811Z,17.10
2017-12-13T00:25:42.100Z,18.12
2017-12-13T00:28:07.918Z,17.60
2017-12-13T00:30:33.727Z,23.93
2017-12-13T00:32:59.510Z,15.63
2017-12-13T00:35:25.324Z,23.20
2017-12-13T00:37:51.125Z,25.07
2017-12-13T00:40:16.940Z,14.30
2017-12-13T00:42:42.764Z,19.43
2017-12-13T00:45:08.543Z,27.10
2017-12-13T00:47:34.335Z,26.00
2017-12-13T00:50:00.147Z,17.80
2017-12-13T00:52:25.932Z,23.67
2017-12-13T00:54:51.736Z,15.07
2017-12-13T00:57:17.568Z,25.10
2017-12-13T00:59:43.379Z,22.67
2017-12-13T01:02:09.172Z,20.40
2017-12-13T01:04:34.963Z,14.87
2017-12-13T01:07:00.758Z,22.30
2017-12-13T01:09:26.547Z,17.30
2017-12-13T01:11:52.359Z,13.97
2017-12-13T01:14:18.160Z,23.23
2017-12-13T01:16:43.940Z,18.40
2017-12-13T01:19:09.737Z,21.30
2017-12-13T01:21:35.507Z,22.80
2017-12-13T01:24:01.278Z,20.03
2017-12-13T01:26:27.268Z,16.47
2017-12-13T01:28:53.051Z,14.63
2017-12-13T01:31:18.836Z,24.53
2017-12-13T01:33:44.654Z,16.87
2017-12-13T01:36:10.442Z,18.90
2017-12-13T01:38:36.235Z,21.70
2017-12-13T01:41:02.042Z,22.90
2017-12-13T01:43:27.844Z,28.50
2017-12-13T01:45:53.628Z,12.57
2017-12-13T01:48:19.435Z,16.90
2017-12-13T01:50:45.238Z,15.80
2017-12-13T01:53:11.023Z,15.63
2017-12-13T01:55:36.859Z,18.37
2017-12-13T01:58:02.659Z,23.67
2017-12-13T02:00:28.443Z,21.13
2017-12-13T02:02:54.278Z,13.23
2017-12-13T02:05:20.096Z,15.20
2017-12-13T02:07:45.907Z,21.73
2017-12-13T02:10:11.728Z,11.70
2017-12-13T02:12:37.529Z,20.10
2017-12-13T02:15:03.375Z,16.97
2017-12-13T02:17:29.171Z,15.60
2017-12-13T02:19:54.958Z,13.57
2017-12-13T02:22:20.807Z,17.63
2017-12-13T02:24:46.620Z,18.23
2017-12-13T02:27:12.486Z,14.30
2017-12-13T02:29:38.299Z,13.63
2017-12-13T02:32:04.082Z,13.13
2017-12-13T02:34:29.876Z,19.87
2017-12-13T02:36:55.904Z,13.27
2017-12-13T02:39:21.691Z,15.77
2017-12-13T02:41:47.466Z,15.67
2017-12-13T02:44:13.255Z,15.10
2017-12-13T02:46:39.044Z,13.10
2017-12-13T02:49:04.820Z,15.37
2017-12-13T02:51:30.794Z,15.70
2017-12-13T02:53:56.759Z,13.77
2017-12-13T02:56:22.561Z,18.27
2017-12-13T02:58:48.370Z,14.00
2017-12-13T03:01:14.163Z,17.17
2017-12-13T03:03:39.955Z,19.87
2017-12-13T03:06:05.771Z,18.83
2017-12-13T03:08:31.564Z,10.27
2017-12-13T03:10:57.350Z,12.10
2017-12-13T03:13:23.170Z,13.47
2017-12-13T03:15:48.962Z,16.00
2017-12-13T03:18:14.735Z,15.87
2017-12-13T03:20:40.536Z,19.27
2017-12-13T03:23:06.352Z,18.07
2017-12-13T03:25:32.163Z,12.00
2017-12-13T03:27:57.952Z,15.43
2017-12-13T03:30:23.742Z,14.40
2017-12-13T03:32:49.538Z,8.53
2017-12-13T03:35:15.315Z,13.07
2017-12-13T03:37:41.122Z,15.60
2017-12-13T03:40:06.890Z,10.10
2017-12-13T03:42:32.662Z,11.70
2017-12-13T03:44:58.450Z,17.40
2017-12-13T03:47:24.403Z,13.30
2017-12-13T03:49:50.207Z,8.03
2017-12-13T03:52:15.985Z,12.37
2017-12-13T03:54:41.765Z,13.90
2017-12-13T03:57:07.591Z,14.10
2017-12-13T03:59:33.410Z,14.40
2017-12-13T04:01:59.186Z,12.93
2017-12-13T04:04:24.997Z,12.67
2017-12-13T04:06:50.780Z,13.00
2017-12-13T04:09:16.569Z,10.70
2017-12-13T04:11:42.591Z,20.20
2017-12-13T04:14:08.389Z,9.20
2017-12-13T04:16:34.150Z,11.97
2017-12-13T04:18:59.943Z,12.40
2017-12-13T04:21:25.723Z,10.63
2017-12-13T04:23:51.508Z,14.30
2017-12-13T04:26:17.505Z,18.13
2017-12-13T04:28:43.279Z,15.18
2017-12-13T04:31:09.050Z,18.07
2017-12-13T04:33:34.863Z,16.40
2017-12-13T04:36:00.647Z,13.80
2017-12-13T04:38:26.442Z,17.47
2017-12-13T04:40:52.247Z,12.00
2017-12-13T04:43:18.035Z,17.23
2017-12-13T04:45:44.016Z,15.23
2017-12-13T04:48:10.058Z,17.00
2017-12-13T04:50:36.269Z,13.98
2017-12-13T04:53:02.079Z,11.48
2017-12-13T04:55:27.862Z,8.90
2017-12-13T04:57:53.864Z,17.90
2017-12-13T05:00:19.651Z,21.08
2017-12-13T05:02:45.426Z,20.40
2017-12-13T05:05:11.246Z,9.47
2017-12-13T05:07:37.056Z,18.00
2017-12-13T05:10:02.882Z,15.63
2017-12-13T05:12:29.819Z,14.27
2017-12-13T05:14:55.665Z,14.07
2017-12-13T05:17:21.481Z,19.60
2017-12-13T05:19:47.329Z,12.00
2017-12-13T05:22:13.122Z,17.00
2017-12-13T05:24:38.923Z,16.43
2017-12-13T05:27:04.730Z,21.50
2017-12-13T05:29:30.507Z,17.17
2017-12-13T05:31:56.294Z,9.60
2017-12-13T05:34:22.142Z,15.03
2017-12-13T05:36:47.924Z,8.30
2017-12-13T05:39:13.970Z,12.77
2017-12-13T05:41:39.778Z,20.77
2017-12-13T05:44:05.587Z,9.83
2017-12-13T05:46:31.366Z,13.10
2017-12-13T05:48:57.179Z,14.00
2017-12-13T05:51:22.954Z,12.20
2017-12-13T05:53:48.734Z,9.27
2017-12-13T05:56:14.530Z,16.80
2017-12-13T05:58:40.307Z,14.10
2017-12-13T06:01:06.082Z,11.13
2017-12-13T06:03:31.900Z,12.50
2017-12-13T06:05:57.678Z,12.87
2017-12-13T06:08:23.451Z,15.23
2017-12-13T06:10:49.285Z,9.10
2017-12-13T06:13:15.067Z,13.57
2017-12-13T06:15:40.900Z,11.10
2017-12-13T06:18:06.704Z,9.93
2017-12-13T06:20:32.489Z,10.27
2017-12-13T06:22:58.278Z,9.57
2017-12-13T06:25:24.336Z,11.10
2017-12-13T06:27:50.130Z,9.13
2017-12-13T06:30:15.918Z,6.30
2017-12-13T06:32:41.723Z,9.00
2017-12-13T06:35:07.518Z,12.63
2017-12-13T06:37:33.295Z,7.93
2017-12-13T06:39:59.096Z,9.37
2017-12-13T06:42:24.884Z,10.53
2017-12-13T06:44:51.506Z,12.13
2017-12-13T06:47:17.287Z,7.20
2017-12-13T06:49:43.334Z,7.87
2017-12-13T06:52:09.459Z,8.60
2017-12-13T06:54:35.247Z,10.18
2017-12-13T06:57:01.024Z,9.73
2017-12-13T06:59:26.823Z,9.60
2017-12-13T07:01:52.603Z,8.20
2017-12-13T07:04:18.406Z,10.43
2017-12-13T07:06:44.195Z,8.67
2017-12-13T07:09:09.981Z,10.00
2017-12-13T07:11:35.794Z,10.10
2017-12-13T07:14:01.593Z,7.13
2017-12-13T07:16:27.372Z,9.13
2017-12-13T07:19:00.158Z,18.43
2017-12-13T07:21:25.929Z,34.67
2017-12-13T07:23:51.703Z,8.63
2017-12-13T07:26:17.498Z,8.93
2017-12-13T07:28:43.358Z,15.27
2017-12-13T07:31:09.146Z,14.60
2017-12-13T07:33:34.967Z,8.73
2017-12-13T07:36:00.751Z,8.80
2017-12-13T07:38:26.540Z,6.80
2017-12-13T07:40:52.336Z,7.07
2017-12-13T07:43:18.134Z,8.07
2017-12-13T07:45:44.090Z,8.30
2017-12-13T07:48:09.926Z,6.03
2017-12-13T07:50:35.751Z,8.23
2017-12-13T07:53:01.566Z,10.00
2017-12-13T07:55:27.634Z,5.87
2017-12-13T07:57:53.423Z,9.00
2017-12-13T08:00:19.202Z,8.97
2017-12-13T08:02:45.009Z,9.70
2017-12-13T08:05:10.855Z,7.40
2017-12-13T08:07:36.648Z,7.07
2017-12-13T08:10:02.810Z,6.63
2017-12-13T08:12:28.607Z,5.97
2017-12-13T08:14:54.386Z,7.43
2017-12-13T08:17:20.211Z,5.43
2017-12-13T08:19:46.011Z,6.40
2017-12-13T08:22:11.795Z,5.97
2017-12-13T08:24:37.593Z,7.67
2017-12-13T08:27:03.371Z,6.90
2017-12-13T08:29:29.154Z,6.50
2017-12-13T08:31:54.947Z,6.80
2017-12-13T08:34:20.739Z,5.97
2017-12-13T08:36:46.547Z,7.33
2017-12-13T08:39:12.373Z,7.67
2017-12-13T08:41:38.168Z,5.97
2017-12-13T08:44:03.955Z,3.40
2017-12-13T08:46:29.762Z,6.83
2017-12-13T08:48:55.559Z,4.20
2017-12-13T08:51:21.389Z,5.33
2017-12-13T08:53:47.188Z,8.17
2017-12-13T08:56:13.015Z,4.07
2017-12-13T08:58:38.829Z,5.30
2017-12-13T09:01:04.654Z,7.20
2017-12-13T09:03:31.042Z,6.57
2017-12-13T09:05:56.835Z,4.03
2017-12-13T09:08:22.976Z,5.53
2017-12-13T09:10:49.493Z,5.62
2017-12-13T09:13:15.299Z,5.22
2017-12-13T09:15:42.054Z,5.70
2017-12-13T09:18:10.102Z,6.05
2017-12-13T09:20:35.904Z,4.37
2017-12-13T09:23:01.704Z,6.23
2017-12-13T09:25:27.489Z,5.40
2017-12-13T09:27:56.529Z,3.90
2017-12-13T09:30:22.358Z,4.75
2017-12-13T09:32:48.952Z,5.03
2017-12-13T09:35:16.074Z,3.90
2017-12-13T09:37:41.867Z,4.10
2017-12-13T09:40:09.363Z,4.37
2017-12-13T09:42:35.152Z,4.85
2017-12-13T09:45:01.481Z,5.80
2017-12-13T09:47:27.625Z,4.22
2017-12-13T09:49:53.435Z,4.80
2017-12-13T09:52:19.263Z,3.70
2017-12-13T09:54:45.099Z,4.73
2017-12-13T09:57:10.892Z,4.33
2017-12-13T09:59:36.721Z,4.30
2017-12-13T10:02:03.278Z,4.70
2017-12-13T10:04:29.723Z,4.60
2017-12-13T10:06:56.496Z,4.07
2017-12-13T10:09:22.512Z,3.87
2017-12-13T10:11:48.956Z,3.80
2017-12-13T10:14:14.746Z,3.83
2017-12-13T10:16:41.474Z,4.73
2017-12-13T10:19:08.610Z,3.40
2017-12-13T10:21:34.398Z,3.55
2017-12-13T10:24:00.636Z,3.60
2017-12-13T10:26:26.984Z,3.85
2017-12-13T10:28:53.736Z,3.15
2017-12-13T10:31:19.636Z,3.60
2017-12-13T10:33:45.444Z,3.60
2017-12-13T10:36:11.891Z,4.47
2017-12-13T10:38:37.704Z,4.53
2017-12-13T10:41:04.304Z,3.67
2017-12-13T10:43:30.581Z,4.45
2017-12-13T10:45:57.646Z,3.33
2017-12-13T10:48:24.318Z,3.50
2017-12-13T10:50:50.958Z,4.20
2017-12-13T10:53:17.331Z,4.18
2017-12-13T10:55:43.134Z,3.75
2017-12-13T10:58:09.268Z,4.33
2017-12-13T11:00:35.920Z,4.90
2017-12-13T11:03:02.327Z,4.20
2017-12-13T11:05:29.208Z,3.15
2017-12-13T11:07:55.332Z,5.05
2017-12-13T11:10:21.459Z,2.95
2017-12-13T11:12:47.291Z,3.20
2017-12-13T11:15:13.349Z,3.00
2017-12-13T11:17:39.268Z,3.50
2017-12-13T11:20:06.496Z,4.33
2017-12-13T11:22:32.670Z,3.83
2017-12-13T11:24:59.274Z,3.40
2017-12-13T11:27:25.399Z,3.93
2017-12-13T11:29:51.191Z,4.35
2017-12-13T11:32:17.635Z,5.20
2017-12-13T11:34:43.419Z,4.75
2017-12-13T11:37:10.172Z,4.80
2017-12-13T11:39:37.518Z,3.92
2017-12-13T11:42:03.361Z,4.25
2017-12-13T11:44:29.831Z,4.37
2017-12-13T11:46:56.590Z,4.78
2017-12-13T11:49:22.642Z,4.70
2017-12-13T11:51:48.478Z,3.87
2017-12-13T11:54:16.294Z,3.20
2017-12-13T11:56:43.900Z,6.90
2017-12-13T11:59:09.746Z,7.00
2017-12-13T12:01:35.559Z,3.10
2017-12-13T12:04:01.430Z,7.00
2017-12-13T12:06:28.566Z,6.07
2017-12-13T12:08:54.460Z,5.70
2017-12-13T12:11:20.281Z,7.70
2017-12-13T12:13:47.108Z,7.80
2017-12-13T12:16:13.272Z,10.05
2017-12-13T12:18:39.274Z,8.68
2017-12-13T12:21:05.070Z,4.77
2017-12-13T12:23:31.919Z,7.07
2017-12-13T12:25:58.723Z,8.10
2017-12-13T12:28:25.684Z,7.57
2017-12-13T12:30:53.016Z,6.85
2017-12-13T12:33:19.023Z,6.03
2017-12-13T12:35:44.824Z,9.00
2017-12-13T12:38:11.298Z,5.40
2017-12-13T12:40:37.890Z,5.87
2017-12-13T12:43:03.699Z,6.15
2017-12-13T12:45:29.495Z,7.33
2017-12-13T12:47:55.283Z,7.73
2017-12-13T12:50:21.076Z,5.63
2017-12-13T12:52:46.903Z,7.90
2017-12-13T12:55:12.695Z,7.23
2017-12-13T12:57:38.487Z,7.40
2017-12-13T13:00:04.319Z,7.00
2017-12-13T13:02:30.699Z,7.80
2017-12-13T13:04:56.487Z,7.60
2017-12-13T13:07:22.628Z,4.27
2017-12-13T13:09:48.406Z,6.35
2017-12-13T13:12:14.669Z,7.53
2017-12-13T13:14:41.896Z,5.70
2017-12-13T13:17:08.788Z,4.18
2017-12-13T13:19:35.667Z,5.18
2017-12-13T13:22:02.355Z,8.33
2017-12-13T13:24:29.957Z,5.93
2017-12-13T13:26:55.879Z,7.05
2017-12-13T13:29:22.470Z,7.40
2017-12-13T13:31:48.278Z,6.82
2017-12-13T13:34:14.083Z,6.27
2017-12-13T13:36:39.883Z,6.33
2017-12-13T13:39:05.676Z,7.70
2017-12-13T13:41:32.196Z,9.43
2017-12-13T13:43:58.032Z,10.65
2017-12-13T13:46:25.144Z,6.37
2017-12-13T13:48:51.599Z,6.32
2017-12-13T13:51:17.442Z,6.53
2017-12-13T13:53:43.220Z,5.53
2017-12-13T13:56:09.024Z,7.80
2017-12-13T13:58:35.132Z,4.20
2017-12-13T14:01:00.916Z,5.43
2017-12-13T14:03:26.688Z,5.37
2017-12-13T14:05:52.638Z,4.60
2017-12-13T14:08:18.426Z,5.83
2017-12-13T14:10:44.211Z,6.10
2017-12-13T14:13:10.978Z,6.47
2017-12-13T14:15:36.755Z,6.80
2017-12-13T14:18:02.539Z,6.00
2017-12-13T14:20:28.367Z,7.10
2017-12-13T14:22:54.153Z,5.53
2017-12-13T14:25:19.927Z,3.97
2017-12-13T14:27:45.743Z,6.30
2017-12-13T14:30:11.535Z,8.40
2017-12-13T14:32:37.331Z,3.10
2017-12-13T14:35:03.147Z,7.13
2017-12-13T14:37:28.931Z,6.90
2017-12-13T14:39:54.703Z,5.90
2017-12-13T14:42:20.595Z,5.93
2017-12-13T14:44:46.380Z,5.40
2017-12-13T14:47:12.159Z,7.40
2017-12-13T14:49:37.959Z,7.00
2017-12-13T14:52:03.746Z,7.20
2017-12-13T14:54:29.523Z,3.73
2017-12-13T14:56:55.498Z,7.50
2017-12-13T14:59:21.282Z,5.70
2017-12-13T15:01:47.061Z,4.43
2017-12-13T15:04:13.163Z,5.70
2017-12-13T15:06:38.983Z,7.75
2017-12-13T15:09:04.772Z,6.17
2017-12-13T15:11:30.573Z,9.63
2017-12-13T15:13:56.352Z,4.37
2017-12-13T15:16:22.148Z,6.17
2017-12-13T15:18:47.969Z,5.70
2017-12-13T15:21:13.755Z,6.47
2017-12-13T15:23:39.545Z,6.87
2017-12-13T15:26:05.350Z,5.63
2017-12-13T15:28:31.158Z,6.40
2017-12-13T15:30:56.953Z,7.90
2017-12-13T15:33:22.896Z,3.00
2017-12-13T15:35:48.692Z,5.50
2017-12-13T15:38:14.710Z,4.53
2017-12-13T15:40:40.720Z,4.65
2017-12-13T15:43:06.519Z,7.15
2017-12-13T15:45:32.347Z,7.97
2017-12-13T15:47:58.154Z,7.10
2017-12-13T15:50:23.942Z,8.70
2017-12-13T15:52:49.937Z,5.73
2017-12-13T15:55:15.714Z,8.77
2017-12-13T15:57:41.507Z,5.63
2017-12-13T16:00:07.485Z,7.30
2017-12-13T16:02:33.301Z,4.67
2017-12-13T16:04:59.104Z,6.37
2017-12-13T16:07:25.171Z,10.00
2017-12-13T16:09:50.968Z,10.00
2017-12-13T16:12:16.765Z,5.40
2017-12-13T16:14:42.566Z,6.83
2017-12-13T16:17:08.351Z,8.07
2017-12-13T16:19:34.126Z,4.43
2017-12-13T16:21:59.926Z,4.83
2017-12-13T16:24:25.708Z,8.40
2017-12-13T16:26:51.486Z,7.97
2017-12-13T16:29:17.303Z,8.10
2017-12-13T16:31:43.869Z,7.13
2017-12-13T16:34:09.655Z,4.95
2017-12-13T16:36:36.388Z,7.53
2017-12-13T16:39:02.213Z,4.43
2017-12-13T16:41:28.249Z,6.77
2017-12-13T16:43:54.998Z,7.95
2017-12-13T16:46:20.796Z,4.90
2017-12-13T16:48:46.584Z,6.80
2017-12-13T16:51:13.063Z,4.40
2017-12-13T16:53:38.847Z,3.55
2017-12-13T16:56:04.712Z,7.03
2017-12-13T16:58:31.395Z,4.73
2017-12-13T17:00:57.218Z,5.72
2017-12-13T17:03:23.099Z,7.70
2017-12-13T17:05:50.837Z,6.70
2017-12-13T17:08:17.179Z,5.53
2017-12-13T17:10:43.053Z,5.53
2017-12-13T17:13:09.859Z,6.80
2017-12-13T17:15:37.459Z,6.15
2017-12-13T17:18:04.144Z,5.40
2017-12-13T17:20:31.364Z,5.65
2017-12-13T17:22:57.158Z,5.68
2017-12-13T17:25:23.860Z,2.87
2017-12-13T17:27:49.717Z,4.60
2017-12-13T17:30:16.138Z,3.83
2017-12-13T17:32:41.989Z,2.53
2017-12-13T17:35:08.501Z,4.57
2017-12-13T17:37:34.573Z,5.00
2017-12-13T17:40:00.454Z,5.05
2017-12-13T17:42:26.977Z,3.27
2017-12-13T17:44:52.764Z,3.40
2017-12-13T17:47:19.539Z,2.80
2017-12-13T17:49:46.843Z,4.22
2017-12-13T17:52:12.670Z,3.03
2017-12-13T17:54:40.344Z,1.87
2017-12-13T17:57:06.229Z,3.37
2017-12-13T17:59:32.061Z,1.43
2017-12-13T18:01:58.605Z,2.80
2017-12-13T18:04:24.415Z,2.95
2017-12-13T18:06:51.156Z,2.77
2017-12-13T18:09:18.119Z,2.85
2017-12-13T18:11:43.978Z,2.53
2017-12-13T18:14:09.796Z,3.80
2017-12-13T18:16:35.644Z,3.50
2017-12-13T18:19:01.799Z,4.00
2017-12-13T18:21:27.664Z,6.03
2017-12-13T18:23:53.962Z,6.13
2017-12-13T18:26:19.815Z,5.05
2017-12-13T18:28:46.248Z,3.83
2017-12-13T18:31:12.076Z,4.03
2017-12-13T18:33:38.482Z,4.40
2017-12-13T18:36:04.307Z,3.12
2017-12-13T18:38:30.944Z,4.10
2017-12-13T18:40:56.851Z,6.40
2017-12-13T18:43:22.672Z,5.90
2017-12-13T18:45:48.508Z,4.13
2017-12-13T18:48:15.207Z,4.37
2017-12-13T18:50:41.038Z,9.10
2017-12-13T18:53:07.143Z,7.40
2017-12-13T18:55:32.982Z,8.70
2017-12-13T18:57:59.852Z,10.40
2017-12-13T19:00:28.032Z,8.15
2017-12-13T19:02:54.739Z,9.57
2017-12-13T19:05:20.562Z,9.23
2017-12-13T19:07:46.375Z,10.40
2017-12-13T19:10:12.929Z,15.57
2017-12-13T19:12:39.306Z,11.43
2017-12-13T19:15:06.032Z,14.55
2017-12-13T19:17:32.866Z,10.45
2017-12-13T19:19:59.308Z,11.82
2017-12-13T19:22:25.106Z,7.85
2017-12-13T19:24:50.940Z,10.50
2017-12-13T19:27:18.630Z,13.40
2017-12-13T19:29:44.455Z,13.18
2017-12-13T19:34:43.032Z,9.30
2017-12-13T19:37:09.459Z,16.07
2017-12-13T19:39:36.178Z,13.20
2017-12-13T19:42:01.981Z,8.02
2017-12-13T19:44:28.039Z,15.13
2017-12-13T19:46:53.843Z,15.70
2017-12-13T19:49:20.173Z,14.47
2017-12-13T19:51:47.384Z,17.58
2017-12-13T19:54:13.587Z,15.77
2017-12-13T19:56:41.571Z,11.65
2017-12-13T19:59:08.579Z,14.30
2017-12-13T20:01:34.430Z,15.40
2017-12-13T20:04:00.267Z,10.70
2017-12-13T20:06:26.081Z,13.47
2017-12-13T20:08:52.401Z,13.80
2017-12-13T20:11:18.200Z,6.72
2017-12-13T20:13:44.717Z,19.37
2017-12-13T20:16:10.523Z,15.48
2017-12-13T20:18:36.309Z,16.07
2017-12-13T20:21:04.660Z,15.70
2017-12-13T20:23:30.470Z,12.52
2017-12-13T20:25:56.264Z,7.73
2017-12-13T20:28:22.291Z,13.57
2017-12-13T20:30:48.088Z,13.50
2017-12-13T20:33:13.884Z,19.33
2017-12-13T20:35:39.948Z,18.63
2017-12-13T20:38:05.876Z,17.33
2017-12-13T20:40:31.992Z,9.90
2017-12-13T20:42:58.727Z,13.38
2017-12-13T20:45:24.541Z,18.60
2017-12-13T20:47:50.689Z,10.87
2017-12-13T20:50:17.272Z,13.20
2017-12-13T20:52:43.067Z,11.20
2017-12-13T20:55:09.612Z,8.67
2017-12-13T20:57:35.417Z,14.68
2017-12-13T21:00:01.594Z,8.90
2017-12-13T21:02:27.548Z,13.35
2017-12-13T21:04:55.125Z,12.90
2017-12-13T21:07:21.631Z,7.55
2017-12-13T21:09:48.170Z,13.62
2017-12-13T21:12:13.991Z,8.63
2017-12-13T21:14:41.051Z,14.90
2017-12-13T21:17:07.491Z,12.35
2017-12-13T21:19:33.290Z,7.50
2017-12-13T21:21:59.067Z,8.30
2017-12-13T21:24:24.916Z,11.10
2017-12-13T21:26:51.830Z,8.17
2017-12-13T21:29:17.593Z,10.30
2017-12-13T21:31:43.417Z,9.57
2017-12-13T21:34:09.215Z,12.90
2017-12-13T21:36:35.528Z,7.23
2017-12-13T21:39:01.410Z,7.62
2017-12-13T21:41:27.242Z,10.33
2017-12-13T21:43:53.037Z,9.33
2017-12-13T21:46:19.736Z,8.10
2017-12-13T21:48:45.535Z,6.97
2017-12-13T21:51:12.596Z,7.57
2017-12-13T21:53:38.407Z,8.75
2017-12-13T21:56:05.775Z,9.63
2017-12-13T21:58:31.559Z,10.65
2017-12-13T22:00:57.351Z,6.33
2017-12-13T22:03:25.426Z,9.40
2017-12-13T22:05:52.131Z,9.95
2017-12-13T22:08:18.833Z,8.80
2017-12-13T22:10:45.496Z,5.45
2017-12-13T22:13:12.475Z,7.55
2017-12-13T22:15:39.252Z,5.35
2017-12-13T22:18:05.058Z,10.38
2017-12-13T22:20:31.291Z,7.50
2017-12-13T22:22:57.086Z,7.43
2017-12-13T22:25:23.094Z,44.60
2017-12-13T22:27:50.066Z,44.38
2017-12-13T22:30:16.240Z,20.17
2017-12-13T22:32:42.048Z,84.28
2017-12-13T22:35:08.188Z,9.63
2017-12-13T22:37:35.154Z,10.60
2017-12-13T22:40:01.768Z,17.70
2017-12-13T22:42:28.310Z,12.23
2017-12-13T22:44:54.108Z,9.55
2017-12-13T22:47:20.771Z,4.03
2017-12-13T22:49:46.563Z,10.10
2017-12-13T22:52:12.374Z,3.90
2017-12-13T22:54:39.077Z,8.03
2017-12-13T22:57:06.179Z,6.10
2017-12-13T22:59:32.055Z,5.65
2017-12-13T23:01:57.849Z,5.63
2017-12-13T23:04:23.663Z,3.83
2017-12-13T23:06:50.054Z,5.53
2017-12-13T23:09:15.876Z,6.80
2017-12-13T23:11:42.251Z,6.77
2017-12-13T23:14:08.042Z,7.30
2017-12-13T23:16:33.869Z,6.17
2017-12-13T23:18:59.709Z,4.80
2017-12-13T23:21:25.499Z,4.60
2017-12-13T23:23:52.244Z,6.13
2017-12-13T23:26:18.090Z,5.53
2017-12-13T23:28:43.896Z,4.40
2017-12-13T23:31:10.275Z,4.07
2017-12-13T23:33:36.074Z,2.67
2017-12-13T23:36:02.767Z,2.47
2017-12-13T23:38:28.573Z,3.20
2017-12-13T23:40:54.355Z,3.50
2017-12-13T23:43:20.827Z,4.03
2017-12-13T23:45:46.635Z,4.53
2017-12-13T23:48:12.435Z,2.87
2017-12-13T23:50:39.540Z,4.13
2017-12-13T23:53:06.325Z,4.10
2017-12-13T23:55:32.132Z,1.50
2017-12-13T23:57:58.451Z,9.53
